Davis City, IA (50065)

1:50 PM CDT on July 30, 2014 (GMT -0500)
Lamoni Municipal (KLWD) Elev 1132 ft | 40.63 °N, 93.90 °W | Change Station

Current weather conditions updated 57 minutes ago

Clear
Clear
77 °F
Feels Like 77 °F
N
7
Wind Variable Wind from NNE

Today is forecast to be nearly the same temperature as yesterday.

Today
High -- | Low -- °F
--% Chance of Precip.
Yesterday
High -- | Low -- °F
Precip. -- in
6:10 AM 8:32 PM
Waxing Crescent, 13% visible
Pressure 30.12 in
Visibility 10.0 miles
Clouds Clear
Dew Point 54 °F
Humidity 45%
Rainfall 0.00 in
Snow Depth Not available.
UV 11 out of 12
Pollen 7.10 out of 12
Air Quality Not available.
Flu Activity Not available.
METAR KLWD 301753Z AUTO 02006KT 10SM CLR 25/12 A3013 RMK AO2 SLP197 T02500122 10256 20144 58002

More Conditions Fewer Conditions

Pressure 30.12 in
Visibility 10.0 miles
Clouds Clear
Dew Point 54 °F
Humidity 45%
Rainfall 0.00 in
Snow Depth Not available.
UV 11 out of 12
Pollen 7.10 out of 12
Air Quality Not available.
Flu Activity Not available.
METAR KLWD 301753Z AUTO 02006KT 10SM CLR 25/12 A3013 RMK AO2 SLP197 T02500122 10256 20144 58002

More Conditions Fewer Conditions

10-Day Weather Forecast

Almanac

Astronomy

Jul. 30, 2014 Rise Set
Actual Time 6:10 AM CDT 8:32 PM CDT
Civil Twilight 5:39 AM CDT 9:03 PM CDT
Nautical Twilight 5:01 AM CDT 9:41 PM CDT
Astronomical Twilight 4:18 AM CDT 10:23 PM CDT
Moon 9:43 AM CDT 10:13 PM CDT
Length of Visible Light 15h 23m
Length of Day
14h 22m
Tomorrow will be 2m 0s shorter.
Waxing Crescent, 13% of the Moon is Illuminated
Today
Waxing Crescent
Aug 3
First Quarter
Aug 10
Full
Aug 17
Last Quarter
Aug 25
New

Today's Extremes

State Highs State Lows

Community

WunderPhotos

Upload Photos

1,739,152 photos uploaded!

WunderBlogs® & News

Nearby

Snow Depth

Station Depth Elevation
No new snow has been reported.

Earthquake Activity

City Distance Mag. Time & Date
No recent earthquake activity has been reported nearby.
Minimum magnitude displayed is 2.5.

Coastal Water Temperatures

Place Temperature
No Stations Reporting

Nearby Weather Stations

Station Location Temp. Heat Index Dew Point Humidity Wind Precip. Elev Updated Type
MesoWest LINEVL , Lineville, IA 79 °F 77 °F - - North  at  - 0.00 in / hr 1098 ft 10:50 AM CDT MADIS
Bethany, Bethany, MO 78.6 °F 80 °F 58 °F 50% NE  at  1.0 mph 0.00 in / hr 1017 ft 1:50 PM CDT Rapid Fire

Show More Stations Show Fewer Stations